sensor_id;sensor_type;location;lat;lon;timestamp;P1;durP1;ratioP1;P2;durP2;ratioP2
16673;SDS011;8450;52.654;10.326;2022-08-19T05:13:31;12.67;;;10.10;;
16673;SDS011;8450;52.654;10.326;2022-08-19T05:18:31;14.50;;;11.00;;
16673;SDS011;8450;52.654;10.326;2022-08-19T05:21:16;13.40;;;10.50;;
16673;SDS011;8450;52.654;10.326;2022-08-19T05:24:02;13.90;;;10.27;;
16673;SDS011;8450;52.654;10.326;2022-08-19T05:26:28;15.50;;;10.57;;
16673;SDS011;8450;52.654;10.326;2022-08-19T05:28:54;16.57;;;10.43;;
16673;SDS011;8450;52.654;10.326;2022-08-19T05:31:20;11.43;;;10.30;;
16673;SDS011;8450;52.654;10.326;2022-08-19T05:33:45;11.53;;;9.90;;
16673;SDS011;8450;52.654;10.326;2022-08-19T05:36:11;12.80;;;9.83;;
16673;SDS011;8450;52.654;10.326;2022-08-19T05:38:38;11.13;;;9.80;;
16673;SDS011;8450;52.654;10.326;2022-08-19T05:41:10;13.77;;;10.30;;
16673;SDS011;8450;52.654;10.326;2022-08-19T05:43:37;11.50;;;9.87;;
16673;SDS011;8450;52.654;10.326;2022-08-19T05:46:04;12.57;;;9.30;;
16673;SDS011;8450;52.654;10.326;2022-08-19T05:48:31;11.53;;;10.30;;
16673;SDS011;8450;52.654;10.326;2022-08-19T05:50:57;12.80;;;10.00;;
16673;SDS011;8450;52.654;10.326;2022-08-19T05:53:24;14.43;;;9.73;;
16673;SDS011;8450;52.654;10.326;2022-08-19T05:55:50;12.50;;;9.47;;
16673;SDS011;8450;52.654;10.326;2022-08-19T05:58:15;12.83;;;9.80;;
16673;SDS011;8450;52.654;10.326;2022-08-19T06:00:42;11.17;;;9.17;;
16673;SDS011;8450;52.654;10.326;2022-08-19T06:03:08;14.90;;;9.07;;
16673;SDS011;8450;52.654;10.326;2022-08-19T06:05:35;10.30;;;8.70;;
16673;SDS011;8450;52.654;10.326;2022-08-19T06:08:00;10.73;;;8.93;;
16673;SDS011;8450;52.654;10.326;2022-08-19T06:10:26;10.17;;;8.20;;
16673;SDS011;8450;52.654;10.326;2022-08-19T06:12:52;9.47;;;8.53;;
16673;SDS011;8450;52.654;10.326;2022-08-19T06:15:18;9.43;;;8.43;;
16673;SDS011;8450;52.654;10.326;2022-08-19T06:17:43;13.77;;;9.30;;
16673;SDS011;8450;52.654;10.326;2022-08-19T06:20:10;10.70;;;8.60;;
16673;SDS011;8450;52.654;10.326;2022-08-19T06:22:38;8.57;;;7.67;;
16673;SDS011;8450;52.654;10.326;2022-08-19T06:25:08;10.23;;;8.53;;
16673;SDS011;8450;52.654;10.326;2022-08-19T06:27:34;10.10;;;8.13;;
16673;SDS011;8450;52.654;10.326;2022-08-19T06:30:01;10.50;;;8.20;;
16673;SDS011;8450;52.654;10.326;2022-08-19T06:32:28;9.37;;;7.50;;
16673;SDS011;8450;52.654;10.326;2022-08-19T06:34:54;12.60;;;7.87;;
16673;SDS011;8450;52.654;10.326;2022-08-19T06:37:19;9.60;;;8.20;;
16673;SDS011;8450;52.654;10.326;2022-08-19T06:39:46;9.10;;;8.20;;
16673;SDS011;8450;52.654;10.326;2022-08-19T06:42:13;8.77;;;7.77;;
16673;SDS011;8450;52.654;10.326;2022-08-19T06:44:41;9.50;;;7.83;;
16673;SDS011;8450;52.654;10.326;2022-08-19T06:47:09;10.00;;;7.23;;
16673;SDS011;8450;52.654;10.326;2022-08-19T06:49:38;8.77;;;7.63;;
16673;SDS011;8450;52.654;10.326;2022-08-19T06:52:03;9.97;;;7.73;;
16673;SDS011;8450;52.654;10.326;2022-08-19T06:54:30;9.13;;;7.67;;
16673;SDS011;8450;52.654;10.326;2022-08-19T06:56:58;11.60;;;6.90;;
16673;SDS011;8450;52.654;10.326;2022-08-19T06:59:27;7.93;;;7.13;;
16673;SDS011;8450;52.654;10.326;2022-08-19T07:01:54;8.67;;;7.43;;
16673;SDS011;8450;52.654;10.326;2022-08-19T07:04:22;8.67;;;7.77;;
16673;SDS011;8450;52.654;10.326;2022-08-19T07:06:50;10.27;;;7.73;;
16673;SDS011;8450;52.654;10.326;2022-08-19T07:09:21;7.93;;;7.13;;
16673;SDS011;8450;52.654;10.326;2022-08-19T07:11:48;7.97;;;7.07;;
16673;SDS011;8450;52.654;10.326;2022-08-19T07:14:15;9.30;;;7.23;;
16673;SDS011;8450;52.654;10.326;2022-08-19T07:16:42;9.03;;;7.20;;
16673;SDS011;8450;52.654;10.326;2022-08-19T07:19:10;9.63;;;7.07;;
16673;SDS011;8450;52.654;10.326;2022-08-19T07:21:36;8.07;;;6.63;;
16673;SDS011;8450;52.654;10.326;2022-08-19T07:24:02;8.00;;;6.80;;
16673;SDS011;8450;52.654;10.326;2022-08-19T07:26:29;9.20;;;6.73;;
16673;SDS011;8450;52.654;10.326;2022-08-19T07:28:57;8.57;;;7.67;;
16673;SDS011;8450;52.654;10.326;2022-08-19T07:31:26;7.57;;;6.77;;
16673;SDS011;8450;52.654;10.326;2022-08-19T07:33:53;10.03;;;6.60;;
16673;SDS011;8450;52.654;10.326;2022-08-19T07:36:24;10.47;;;8.20;;
16673;SDS011;8450;52.654;10.326;2022-08-19T07:38:57;8.07;;;7.27;;
16673;SDS011;8450;52.654;10.326;2022-08-19T07:41:25;8.77;;;7.63;;
16673;SDS011;8450;52.654;10.326;2022-08-19T07:43:53;11.97;;;7.10;;
16673;SDS011;8450;52.654;10.326;2022-08-19T07:46:20;8.67;;;7.77;;
16673;SDS011;8450;52.654;10.326;2022-08-19T07:48:46;9.80;;;7.83;;
16673;SDS011;8450;52.654;10.326;2022-08-19T07:51:16;7.97;;;7.03;;
16673;SDS011;8450;52.654;10.326;2022-08-19T07:53:43;8.03;;;6.77;;
16673;SDS011;8450;52.654;10.326;2022-08-19T07:56:11;7.80;;;6.63;;
16673;SDS011;8450;52.654;10.326;2022-08-19T07:58:39;9.90;;;7.13;;
16673;SDS011;8450;52.654;10.326;2022-08-19T08:01:08;9.57;;;7.47;;
16673;SDS011;8450;52.654;10.326;2022-08-19T08:03:36;7.13;;;6.37;;
16673;SDS011;8450;52.654;10.326;2022-08-19T08:06:21;7.10;;;6.40;;
16673;SDS011;8450;52.654;10.326;2022-08-19T08:09:05;8.80;;;6.80;;
16673;SDS011;8450;52.654;10.326;2022-08-19T08:11:52;10.60;;;7.60;;
16673;SDS011;8450;52.654;10.326;2022-08-19T08:14:26;9.10;;;8.20;;
16673;SDS011;8450;52.654;10.326;2022-08-19T08:16:55;10.13;;;8.50;;
16673;SDS011;8450;52.654;10.326;2022-08-19T08:19:22;8.60;;;7.70;;
16673;SDS011;8450;52.654;10.326;2022-08-19T08:21:49;9.23;;;7.93;;
16673;SDS011;8450;52.654;10.326;2022-08-19T08:24:15;8.80;;;7.67;;
16673;SDS011;8450;52.654;10.326;2022-08-19T08:26:41;8.97;;;7.20;;
16673;SDS011;8450;52.654;10.326;2022-08-19T08:29:09;9.30;;;7.70;;
16673;SDS011;8450;52.654;10.326;2022-08-19T08:31:38;8.63;;;7.73;;
16673;SDS011;8450;52.654;10.326;2022-08-19T08:34:05;8.93;;;6.63;;
16673;SDS011;8450;52.654;10.326;2022-08-19T08:36:30;9.33;;;7.50;;
16673;SDS011;8450;52.654;10.326;2022-08-19T08:38:58;9.23;;;8.33;;
16673;SDS011;8450;52.654;10.326;2022-08-19T08:41:40;9.60;;;7.57;;
16673;SDS011;8450;52.654;10.326;2022-08-19T08:44:18;12.40;;;8.13;;
16673;SDS011;8450;52.654;10.326;2022-08-19T08:46:49;7.97;;;6.60;;
16673;SDS011;8450;52.654;10.326;2022-08-19T08:49:41;8.47;;;6.87;;
16673;SDS011;8450;52.654;10.326;2022-08-19T08:52:18;8.53;;;7.27;;
16673;SDS011;8450;52.654;10.326;2022-08-19T08:54:49;7.97;;;7.00;;
16673;SDS011;8450;52.654;10.326;2022-08-19T08:57:35;8.23;;;7.43;;
16673;SDS011;8450;52.654;10.326;2022-08-19T09:00:05;7.70;;;6.90;;
16673;SDS011;8450;52.654;10.326;2022-08-19T09:02:35;11.20;;;7.37;;
16673;SDS011;8450;52.654;10.326;2022-08-19T09:05:00;7.83;;;7.00;;
16673;SDS011;8450;52.654;10.326;2022-08-19T09:07:34;8.03;;;7.23;;
16673;SDS011;8450;52.654;10.326;2022-08-19T09:10:46;7.60;;;6.80;;
16673;SDS011;8450;52.654;10.326;2022-08-19T09:13:28;8.73;;;6.87;;
16673;SDS011;8450;52.654;10.326;2022-08-19T09:16:16;7.97;;;6.67;;
16673;SDS011;8450;52.654;10.326;2022-08-19T09:18:47;7.50;;;6.70;;
16673;SDS011;8450;52.654;10.326;2022-08-19T09:21:18;7.03;;;6.33;;
16673;SDS011;8450;52.654;10.326;2022-08-19T09:23:45;6.07;;;5.47;;
16673;SDS011;8450;52.654;10.326;2022-08-19T09:26:13;7.13;;;6.53;;
16673;SDS011;8450;52.654;10.326;2022-08-19T09:28:41;7.03;;;6.33;;
16673;SDS011;8450;52.654;10.326;2022-08-19T09:31:10;7.17;;;6.13;;
16673;SDS011;8450;52.654;10.326;2022-08-19T09:33:39;7.47;;;6.13;;
16673;SDS011;8450;52.654;10.326;2022-08-19T09:36:09;7.47;;;6.00;;
16673;SDS011;8450;52.654;10.326;2022-08-19T09:38:36;7.17;;;6.20;;
16673;SDS011;8450;52.654;10.326;2022-08-19T09:41:05;7.57;;;6.50;;
16673;SDS011;8450;52.654;10.326;2022-08-19T09:43:38;7.30;;;6.60;;
16673;SDS011;8450;52.654;10.326;2022-08-19T09:46:05;7.90;;;6.20;;
16673;SDS011;8450;52.654;10.326;2022-08-19T09:48:34;8.83;;;7.13;;
16673;SDS011;8450;52.654;10.326;2022-08-19T09:51:04;8.33;;;7.13;;
16673;SDS011;8450;52.654;10.326;2022-08-19T09:53:34;8.33;;;7.40;;
16673;SDS011;8450;52.654;10.326;2022-08-19T09:56:01;8.27;;;7.37;;
16673;SDS011;8450;52.654;10.326;2022-08-19T09:58:27;7.67;;;6.93;;
16673;SDS011;8450;52.654;10.326;2022-08-19T10:00:55;9.13;;;7.20;;
16673;SDS011;8450;52.654;10.326;2022-08-19T10:03:22;9.10;;;7.80;;
16673;SDS011;8450;52.654;10.326;2022-08-19T10:05:48;10.20;;;6.83;;
16673;SDS011;8450;52.654;10.326;2022-08-19T10:08:19;9.43;;;6.80;;
16673;SDS011;8450;52.654;10.326;2022-08-19T10:10:48;6.90;;;6.20;;
16673;SDS011;8450;52.654;10.326;2022-08-19T10:13:15;8.00;;;7.00;;
16673;SDS011;8450;52.654;10.326;2022-08-19T10:15:42;9.47;;;7.00;;
16673;SDS011;8450;52.654;10.326;2022-08-19T10:18:08;8.97;;;6.57;;
16673;SDS011;8450;52.654;10.326;2022-08-19T10:20:33;7.83;;;6.80;;
16673;SDS011;8450;52.654;10.326;2022-08-19T10:23:01;8.07;;;6.33;;
16673;SDS011;8450;52.654;10.326;2022-08-19T10:25:27;7.80;;;7.00;;
16673;SDS011;8450;52.654;10.326;2022-08-19T10:27:52;10.70;;;7.57;;
16673;SDS011;8450;52.654;10.326;2022-08-19T10:30:18;11.70;;;7.67;;
16673;SDS011;8450;52.654;10.326;2022-08-19T10:32:45;9.63;;;7.87;;
16673;SDS011;8450;52.654;10.326;2022-08-19T10:35:11;8.70;;;7.13;;
16673;SDS011;8450;52.654;10.326;2022-08-19T10:37:37;9.93;;;7.70;;
16673;SDS011;8450;52.654;10.326;2022-08-19T10:40:06;11.03;;;8.53;;
16673;SDS011;8450;52.654;10.326;2022-08-19T10:42:33;9.13;;;8.23;;
16673;SDS011;8450;52.654;10.326;2022-08-19T10:44:59;9.80;;;7.90;;
16673;SDS011;8450;52.654;10.326;2022-08-19T10:47:25;11.50;;;9.30;;
16673;SDS011;8450;52.654;10.326;2022-08-19T10:49:50;12.73;;;9.33;;
16673;SDS011;8450;52.654;10.326;2022-08-19T10:52:42;10.87;;;8.63;;
16673;SDS011;8450;52.654;10.326;2022-08-19T10:55:09;9.83;;;8.00;;
16673;SDS011;8450;52.654;10.326;2022-08-19T10:57:54;9.33;;;7.50;;
16673;SDS011;8450;52.654;10.326;2022-08-19T11:00:20;9.67;;;8.10;;
16673;SDS011;8450;52.654;10.326;2022-08-19T11:02:48;9.53;;;8.37;;
16673;SDS011;8450;52.654;10.326;2022-08-19T11:05:14;11.80;;;8.37;;
16673;SDS011;8450;52.654;10.326;2022-08-19T11:07:40;9.17;;;8.10;;
16673;SDS011;8450;52.654;10.326;2022-08-19T11:10:07;10.67;;;7.37;;
16673;SDS011;8450;52.654;10.326;2022-08-19T11:12:36;8.80;;;7.90;;
16673;SDS011;8450;52.654;10.326;2022-08-19T11:15:04;10.47;;;8.40;;
16673;SDS011;8450;52.654;10.326;2022-08-19T11:17:36;9.77;;;8.60;;
16673;SDS011;8450;52.654;10.326;2022-08-19T11:20:07;9.33;;;8.10;;
16673;SDS011;8450;52.654;10.326;2022-08-19T11:22:35;12.50;;;8.73;;
16673;SDS011;8450;52.654;10.326;2022-08-19T11:25:01;11.17;;;8.63;;
16673;SDS011;8450;52.654;10.326;2022-08-19T11:27:27;9.70;;;8.70;;
16673;SDS011;8450;52.654;10.326;2022-08-19T11:29:53;10.70;;;8.23;;
16673;SDS011;8450;52.654;10.326;2022-08-19T11:32:19;9.83;;;8.83;;
16673;SDS011;8450;52.654;10.326;2022-08-19T11:34:45;9.67;;;8.63;;
16673;SDS011;8450;52.654;10.326;2022-08-19T11:37:10;11.00;;;9.30;;
16673;SDS011;8450;52.654;10.326;2022-08-19T11:39:36;10.97;;;9.70;;
16673;SDS011;8450;52.654;10.326;2022-08-19T11:42:03;10.77;;;9.60;;
16673;SDS011;8450;52.654;10.326;2022-08-19T11:44:49;11.07;;;8.97;;
16673;SDS011;8450;52.654;10.326;2022-08-19T11:47:15;12.17;;;9.33;;
16673;SDS011;8450;52.654;10.326;2022-08-19T11:49:41;11.47;;;9.53;;
16673;SDS011;8450;52.654;10.326;2022-08-19T11:52:07;13.03;;;11.43;;
16673;SDS011;8450;52.654;10.326;2022-08-19T11:54:34;12.13;;;9.97;;
16673;SDS011;8450;52.654;10.326;2022-08-19T11:57:00;11.60;;;9.33;;
16673;SDS011;8450;52.654;10.326;2022-08-19T11:59:27;12.90;;;9.23;;
16673;SDS011;8450;52.654;10.326;2022-08-19T12:01:54;11.47;;;9.27;;
16673;SDS011;8450;52.654;10.326;2022-08-19T12:04:21;11.77;;;10.57;;
16673;SDS011;8450;52.654;10.326;2022-08-19T12:06:47;15.53;;;9.03;;
16673;SDS011;8450;52.654;10.326;2022-08-19T12:09:21;14.87;;;9.80;;
16673;SDS011;8450;52.654;10.326;2022-08-19T12:11:47;12.10;;;9.67;;
16673;SDS011;8450;52.654;10.326;2022-08-19T12:14:12;10.40;;;9.30;;
16673;SDS011;8450;52.654;10.326;2022-08-19T12:16:39;9.60;;;8.73;;
16673;SDS011;8450;52.654;10.326;2022-08-19T12:19:06;11.43;;;9.13;;
16673;SDS011;8450;52.654;10.326;2022-08-19T12:21:33;9.63;;;8.27;;
16673;SDS011;8450;52.654;10.326;2022-08-19T12:24:00;9.57;;;8.67;;
16673;SDS011;8450;52.654;10.326;2022-08-19T12:26:28;9.57;;;8.10;;
16673;SDS011;8450;52.654;10.326;2022-08-19T12:28:56;8.53;;;7.73;;
16673;SDS011;8450;52.654;10.326;2022-08-19T12:31:24;9.10;;;8.20;;
16673;SDS011;8450;52.654;10.326;2022-08-19T12:33:50;8.60;;;7.80;;
16673;SDS011;8450;52.654;10.326;2022-08-19T12:36:17;10.43;;;8.60;;
16673;SDS011;8450;52.654;10.326;2022-08-19T12:38:43;10.70;;;8.53;;
16673;SDS011;8450;52.654;10.326;2022-08-19T12:41:10;9.53;;;8.60;;
16673;SDS011;8450;52.654;10.326;2022-08-19T12:43:37;9.47;;;8.47;;
16673;SDS011;8450;52.654;10.326;2022-08-19T12:46:04;9.70;;;8.80;;
16673;SDS011;8450;52.654;10.326;2022-08-19T12:48:31;9.13;;;8.23;;
16673;SDS011;8450;52.654;10.326;2022-08-19T12:50:58;9.67;;;8.77;;
16673;SDS011;8450;52.654;10.326;2022-08-19T12:53:23;10.23;;;8.80;;
16673;SDS011;8450;52.654;10.326;2022-08-19T12:55:56;9.50;;;8.53;;
16673;SDS011;8450;52.654;10.326;2022-08-19T12:58:23;9.90;;;8.90;;
16673;SDS011;8450;52.654;10.326;2022-08-19T13:00:48;10.53;;;9.43;;
16673;SDS011;8450;52.654;10.326;2022-08-19T13:03:14;9.93;;;8.93;;
16673;SDS011;8450;52.654;10.326;2022-08-19T13:05:40;10.80;;;9.73;;
16673;SDS011;8450;52.654;10.326;2022-08-19T13:08:06;9.00;;;8.10;;
16673;SDS011;8450;52.654;10.326;2022-08-19T13:10:32;9.93;;;8.13;;
16673;SDS011;8450;52.654;10.326;2022-08-19T13:13:02;9.40;;;8.37;;
16673;SDS011;8450;52.654;10.326;2022-08-19T13:15:32;9.57;;;8.57;;
16673;SDS011;8450;52.654;10.326;2022-08-19T13:18:04;8.20;;;7.40;;
16673;SDS011;8450;52.654;10.326;2022-08-19T13:20:30;9.30;;;8.40;;
16673;SDS011;8450;52.654;10.326;2022-08-19T13:22:56;8.63;;;7.83;;
16673;SDS011;8450;52.654;10.326;2022-08-19T13:25:22;10.40;;;7.63;;
16673;SDS011;8450;52.654;10.326;2022-08-19T13:27:48;8.10;;;7.40;;
16673;SDS011;8450;52.654;10.326;2022-08-19T13:30:16;9.73;;;8.40;;
16673;SDS011;8450;52.654;10.326;2022-08-19T13:33:01;8.40;;;7.70;;
16673;SDS011;8450;52.654;10.326;2022-08-19T13:35:36;11.80;;;8.10;;
16673;SDS011;8450;52.654;10.326;2022-08-19T13:38:13;8.20;;;7.40;;
16673;SDS011;8450;52.654;10.326;2022-08-19T13:40:41;8.60;;;7.80;;
16673;SDS011;8450;52.654;10.326;2022-08-19T13:43:07;8.60;;;7.80;;
16673;SDS011;8450;52.654;10.326;2022-08-19T13:45:34;7.70;;;7.00;;
16673;SDS011;8450;52.654;10.326;2022-08-19T13:48:01;7.93;;;7.17;;
16673;SDS011;8450;52.654;10.326;2022-08-19T13:50:32;9.33;;;8.40;;
16673;SDS011;8450;52.654;10.326;2022-08-19T13:52:58;8.93;;;8.10;;
16673;SDS011;8450;52.654;10.326;2022-08-19T13:55:25;8.80;;;7.87;;
16673;SDS011;8450;52.654;10.326;2022-08-19T13:57:52;7.53;;;6.80;;
16673;SDS011;8450;52.654;10.326;2022-08-19T14:00:19;9.70;;;8.77;;
16673;SDS011;8450;52.654;10.326;2022-08-19T14:02:46;8.60;;;7.70;;
16673;SDS011;8450;52.654;10.326;2022-08-19T14:05:16;8.40;;;7.60;;
16673;SDS011;8450;52.654;10.326;2022-08-19T14:07:42;10.50;;;9.07;;
16673;SDS011;8450;52.654;10.326;2022-08-19T14:10:09;8.60;;;7.90;;
16673;SDS011;8450;52.654;10.326;2022-08-19T14:12:36;8.20;;;7.40;;
16673;SDS011;8450;52.654;10.326;2022-08-19T14:15:03;9.93;;;9.03;;
16673;SDS011;8450;52.654;10.326;2022-08-19T14:17:30;10.00;;;9.00;;
16673;SDS011;8450;52.654;10.326;2022-08-19T14:19:56;9.47;;;7.27;;
16673;SDS011;8450;52.654;10.326;2022-08-19T14:22:24;9.10;;;8.17;;
16673;SDS011;8450;52.654;10.326;2022-08-19T14:24:49;8.90;;;8.10;;
16673;SDS011;8450;52.654;10.326;2022-08-19T14:27:15;8.63;;;7.83;;
16673;SDS011;8450;52.654;10.326;2022-08-19T14:29:41;9.03;;;6.83;;
16673;SDS011;8450;52.654;10.326;2022-08-19T14:32:06;8.57;;;7.67;;
16673;SDS011;8450;52.654;10.326;2022-08-19T14:34:32;10.07;;;8.30;;
16673;SDS011;8450;52.654;10.326;2022-08-19T14:36:58;7.97;;;7.30;;
16673;SDS011;8450;52.654;10.326;2022-08-19T14:39:24;7.80;;;7.10;;
16673;SDS011;8450;52.654;10.326;2022-08-19T14:41:50;7.30;;;6.60;;
16673;SDS011;8450;52.654;10.326;2022-08-19T14:44:15;8.10;;;7.37;;
16673;SDS011;8450;52.654;10.326;2022-08-19T14:46:41;8.47;;;7.57;;
16673;SDS011;8450;52.654;10.326;2022-08-19T14:49:07;8.50;;;7.80;;
16673;SDS011;8450;52.654;10.326;2022-08-19T14:51:32;8.30;;;7.57;;
16673;SDS011;8450;52.654;10.326;2022-08-19T14:53:58;8.17;;;7.50;;
16673;SDS011;8450;52.654;10.326;2022-08-19T14:56:25;9.07;;;7.23;;
16673;SDS011;8450;52.654;10.326;2022-08-19T14:58:52;7.57;;;6.47;;
16673;SDS011;8450;52.654;10.326;2022-08-19T15:01:19;7.67;;;6.97;;
16673;SDS011;8450;52.654;10.326;2022-08-19T15:03:47;8.13;;;7.43;;
16673;SDS011;8450;52.654;10.326;2022-08-19T15:06:13;8.27;;;6.70;;
16673;SDS011;8450;52.654;10.326;2022-08-19T15:08:39;7.33;;;6.73;;
16673;SDS011;8450;52.654;10.326;2022-08-19T15:11:10;8.60;;;7.70;;
16673;SDS011;8450;52.654;10.326;2022-08-19T15:13:39;7.70;;;7.00;;
16673;SDS011;8450;52.654;10.326;2022-08-19T15:16:05;8.27;;;7.53;;
16673;SDS011;8450;52.654;10.326;2022-08-19T15:18:31;8.27;;;6.80;;
16673;SDS011;8450;52.654;10.326;2022-08-19T15:20:57;8.73;;;7.83;;
16673;SDS011;8450;52.654;10.326;2022-08-19T15:23:24;7.13;;;6.53;;
16673;SDS011;8450;52.654;10.326;2022-08-19T15:25:50;7.80;;;7.00;;
16673;SDS011;8450;52.654;10.326;2022-08-19T15:28:20;8.10;;;7.30;;
16673;SDS011;8450;52.654;10.326;2022-08-19T15:30:46;8.27;;;7.47;;
16673;SDS011;8450;52.654;10.326;2022-08-19T15:33:12;8.17;;;7.43;;
16673;SDS011;8450;52.654;10.326;2022-08-19T15:35:39;7.90;;;7.13;;
16673;SDS011;8450;52.654;10.326;2022-08-19T15:38:06;8.63;;;7.70;;
16673;SDS011;8450;52.654;10.326;2022-08-19T15:40:33;8.03;;;7.37;;
16673;SDS011;8450;52.654;10.326;2022-08-19T15:42:58;7.33;;;6.70;;
16673;SDS011;8450;52.654;10.326;2022-08-19T15:45:24;7.77;;;7.07;;
16673;SDS011;8450;52.654;10.326;2022-08-19T15:47:57;8.20;;;6.97;;
16673;SDS011;8450;52.654;10.326;2022-08-19T15:50:23;8.53;;;7.83;;
16673;SDS011;8450;52.654;10.326;2022-08-19T15:52:50;7.65;;;6.85;;
16673;SDS011;8450;52.654;10.326;2022-08-19T15:55:22;7.07;;;6.50;;
16673;SDS011;8450;52.654;10.326;2022-08-19T15:57:49;6.95;;;6.35;;
16673;SDS011;8450;52.654;10.326;2022-08-19T16:00:33;7.18;;;6.57;;
16673;SDS011;8450;52.654;10.326;2022-08-19T16:03:17;6.70;;;6.13;;
16673;SDS011;8450;52.654;10.326;2022-08-19T16:06:02;8.73;;;6.30;;
16673;SDS011;8450;52.654;10.326;2022-08-19T16:08:46;8.07;;;7.38;;
16673;SDS011;8450;52.654;10.326;2022-08-19T16:11:14;6.85;;;6.25;;
16673;SDS011;8450;52.654;10.326;2022-08-19T16:13:44;6.72;;;6.05;;
16673;SDS011;8450;52.654;10.326;2022-08-19T16:16:15;6.03;;;5.53;;
16673;SDS011;8450;52.654;10.326;2022-08-19T16:19:02;6.35;;;5.85;;
16673;SDS011;8450;52.654;10.326;2022-08-19T16:21:30;6.55;;;6.00;;
16673;SDS011;8450;52.654;10.326;2022-08-19T16:23:58;6.38;;;5.78;;
16673;SDS011;8450;52.654;10.326;2022-08-19T16:26:25;5.70;;;5.30;;
16673;SDS011;8450;52.654;10.326;2022-08-19T16:28:55;6.50;;;5.90;;
16673;SDS011;8450;52.654;10.326;2022-08-19T16:31:25;6.40;;;5.80;;
16673;SDS011;8450;52.654;10.326;2022-08-19T16:33:51;7.32;;;6.72;;
16673;SDS011;8450;52.654;10.326;2022-08-19T16:36:17;6.90;;;6.30;;
16673;SDS011;8450;52.654;10.326;2022-08-19T16:38:43;6.93;;;6.38;;
16673;SDS011;8450;52.654;10.326;2022-08-19T16:41:12;6.15;;;5.65;;
16673;SDS011;8450;52.654;10.326;2022-08-19T16:43:38;7.38;;;6.78;;
16673;SDS011;8450;52.654;10.326;2022-08-19T16:46:04;7.38;;;6.78;;
16673;SDS011;8450;52.654;10.326;2022-08-19T16:48:30;7.60;;;6.77;;
16673;SDS011;8450;52.654;10.326;2022-08-19T16:50:57;6.93;;;6.30;;
16673;SDS011;8450;52.654;10.326;2022-08-19T16:53:24;7.87;;;7.27;;
16673;SDS011;8450;52.654;10.326;2022-08-19T16:55:56;7.97;;;6.67;;
16673;SDS011;8450;52.654;10.326;2022-08-19T16:58:22;6.90;;;6.30;;
16673;SDS011;8450;52.654;10.326;2022-08-19T17:00:53;7.80;;;6.70;;
16673;SDS011;8450;52.654;10.326;2022-08-19T17:03:20;6.83;;;6.23;;
16673;SDS011;8450;52.654;10.326;2022-08-19T17:05:48;6.70;;;6.17;;
16673;SDS011;8450;52.654;10.326;2022-08-19T17:08:16;6.60;;;6.00;;
16673;SDS011;8450;52.654;10.326;2022-08-19T17:10:44;6.97;;;6.37;;
16673;SDS011;8450;52.654;10.326;2022-08-19T17:13:10;6.97;;;6.37;;
16673;SDS011;8450;52.654;10.326;2022-08-19T17:15:39;7.13;;;5.87;;
16673;SDS011;8450;52.654;10.326;2022-08-19T17:18:06;6.97;;;6.03;;
16673;SDS011;8450;52.654;10.326;2022-08-19T17:20:33;6.87;;;6.13;;
16673;SDS011;8450;52.654;10.326;2022-08-19T17:22:59;6.37;;;5.70;;
16673;SDS011;8450;52.654;10.326;2022-08-19T17:25:26;6.80;;;5.77;;
16673;SDS011;8450;52.654;10.326;2022-08-19T17:27:55;5.53;;;5.03;;
16673;SDS011;8450;52.654;10.326;2022-08-19T17:30:21;6.17;;;5.67;;
16673;SDS011;8450;52.654;10.326;2022-08-19T17:32:47;6.23;;;5.70;;
16673;SDS011;8450;52.654;10.326;2022-08-19T17:35:13;6.47;;;5.97;;
16673;SDS011;8450;52.654;10.326;2022-08-19T17:37:45;6.97;;;6.33;;
16673;SDS011;8450;52.654;10.326;2022-08-19T17:40:12;6.40;;;5.90;;
16673;SDS011;8450;52.654;10.326;2022-08-19T17:42:38;7.63;;;6.93;;
16673;SDS011;8450;52.654;10.326;2022-08-19T17:45:05;7.10;;;6.50;;
16673;SDS011;8450;52.654;10.326;2022-08-19T17:47:32;9.17;;;6.93;;
16673;SDS011;8450;52.654;10.326;2022-08-19T17:50:00;7.13;;;6.43;;
16673;SDS011;8450;52.654;10.326;2022-08-19T17:52:27;7.87;;;7.17;;
16673;SDS011;8450;52.654;10.326;2022-08-19T17:54:52;9.17;;;7.00;;
16673;SDS011;8450;52.654;10.326;2022-08-19T17:57:18;7.03;;;6.43;;
